Time;durP1;ratioP1;P1;durP2;ratioP2;P2;SDS_P1;SDS_P2;PMS_P1;PMS_P2;Temp;Humidity;BMP_temperature;BMP_pressure;BME280_temperature;BME280_humidity;BME280_pressure;Samples;Min_cycle;Max_cycle;Signal;HPM_P1;HPM_P2
2023/08/30 00:00:10;;;;;;;19.70;17.80;;;14.60;99.90;;;;;;4996844;28;89009;-35
2023/08/30 00:02:36;;;;;;;20.08;18.08;;;14.60;99.90;;;;;;4997157;28;91706;-38
2023/08/30 00:05:03;;;;;;;19.55;17.70;;;14.60;99.90;;;;;;4997592;28;89782;-33
2023/08/30 00:07:29;;;;;;;19.73;17.63;;;14.50;99.90;;;;;;4997812;28;89590;-34
2023/08/30 00:09:55;;;;;;;21.65;19.45;;;14.40;99.90;;;;;;4991444;28;89859;-34
2023/08/30 00:12:21;;;;;;;21.92;18.13;;;14.40;99.90;;;;;;4995493;28;90342;-34
2023/08/30 00:14:47;;;;;;;19.77;17.70;;;14.30;99.90;;;;;;4995167;28;90369;-32
2023/08/30 00:17:13;;;;;;;20.05;18.10;;;14.30;99.90;;;;;;4990263;28;90191;-37
2023/08/30 00:19:40;;;;;;;18.63;16.77;;;14.30;99.90;;;;;;4991012;28;88926;-35
2023/08/30 00:22:08;;;;;;;19.65;17.83;;;14.30;99.90;;;;;;4995469;28;90119;-34
2023/08/30 00:24:35;;;;;;;18.75;16.75;;;14.30;99.90;;;;;;4971370;28;88744;-33
2023/08/30 00:27:04;;;;;;;19.30;17.30;;;14.30;99.90;;;;;;4988553;28;90203;-34
2023/08/30 00:29:30;;;;;;;19.50;17.60;;;14.30;99.90;;;;;;4982846;28;89345;-38
2023/08/30 00:31:56;;;;;;;20.42;18.33;;;14.20;99.90;;;;;;4996625;28;90343;-35
2023/08/30 00:34:22;;;;;;;18.20;16.30;;;14.20;99.90;;;;;;4996281;28;91031;-40
2023/08/30 00:36:47;;;;;;;21.55;18.50;;;14.20;99.90;;;;;;4997521;28;89599;-37
2023/08/30 00:39:13;;;;;;;20.35;18.33;;;14.20;99.90;;;;;;5000819;28;89217;-34
2023/08/30 00:41:39;;;;;;;21.48;19.25;;;14.20;99.90;;;;;;5000021;28;90043;-36
2023/08/30 00:44:05;;;;;;;20.70;18.42;;;14.20;99.90;;;;;;4984839;28;89781;-34
2023/08/30 00:46:35;;;;;;;20.65;18.00;;;14.10;99.90;;;;;;4998010;28;89625;-33
2023/08/30 00:49:01;;;;;;;21.58;19.10;;;14.10;99.90;;;;;;4994098;28;90235;-40
2023/08/30 00:51:27;;;;;;;19.38;17.30;;;14.10;99.90;;;;;;5003888;28;89562;-34
2023/08/30 00:53:54;;;;;;;20.85;18.75;;;14.10;99.90;;;;;;4996912;28;90598;-35
2023/08/30 00:56:20;;;;;;;21.47;18.97;;;14.10;99.90;;;;;;4996804;28;89972;-40
2023/08/30 00:58:48;;;;;;;20.95;18.67;;;14.00;99.90;;;;;;4997739;28;90363;-33
2023/08/30 01:01:15;;;;;;;20.38;18.27;;;14.00;99.90;;;;;;5000084;28;89317;-34
2023/08/30 01:03:41;;;;;;;19.98;17.98;;;14.00;99.90;;;;;;4999900;28;89541;-33
2023/08/30 01:06:07;;;;;;;17.80;16.23;;;14.00;99.90;;;;;;4994918;28;89756;-33
2023/08/30 01:08:33;;;;;;;21.08;18.48;;;13.90;99.90;;;;;;4992836;28;89618;-36
2023/08/30 01:11:08;;;;;;;18.85;16.85;;;13.90;99.90;;;;;;5000024;28;90703;-37
2023/08/30 01:13:42;;;;;;;21.88;19.27;;;13.90;99.90;;;;;;4999885;28;89701;-33
2023/08/30 01:16:08;;;;;;;21.00;18.77;;;13.80;99.90;;;;;;5000798;28;89705;-37
2023/08/30 01:18:36;;;;;;;20.70;18.50;;;13.80;99.90;;;;;;4987150;28;89229;-33
2023/08/30 01:21:07;;;;;;;18.88;17.08;;;13.80;99.90;;;;;;4991657;28;90271;-33
2023/08/30 01:23:33;;;;;;;18.27;16.35;;;13.70;99.90;;;;;;4984005;28;90596;-38
2023/08/30 01:26:35;;;;;;;19.52;17.45;;;13.70;99.90;;;;;;4999679;28;90267;-37
2023/08/30 01:29:03;;;;;;;18.35;16.52;;;13.60;99.90;;;;;;4999858;28;89350;-38
2023/08/30 01:31:33;;;;;;;18.90;17.13;;;13.40;99.90;;;;;;4999509;28;90105;-34
2023/08/30 01:34:00;;;;;;;19.23;17.23;;;13.40;99.90;;;;;;5000780;28;89629;-33
2023/08/30 01:36:26;;;;;;;19.75;17.77;;;13.30;99.90;;;;;;4999366;28;89688;-34
2023/08/30 01:38:53;;;;;;;18.05;16.35;;;13.30;99.90;;;;;;5000123;28;88731;-36
2023/08/30 01:41:19;;;;;;;18.75;16.90;;;13.40;99.90;;;;;;4983386;28;90056;-33
2023/08/30 01:43:47;;;;;;;20.58;18.23;;;13.30;99.90;;;;;;4990269;28;89381;-33
2023/08/30 01:46:13;;;;;;;18.83;16.97;;;13.30;99.90;;;;;;4986488;28;89517;-35
2023/08/30 01:48:40;;;;;;;20.05;17.85;;;13.30;99.90;;;;;;4987769;28;90376;-37
2023/08/30 01:51:07;;;;;;;20.17;18.17;;;13.20;99.90;;;;;;4989965;28;90170;-34
2023/08/30 01:53:34;;;;;;;19.47;16.57;;;13.20;99.90;;;;;;4994289;28;89644;-33
2023/08/30 01:56:00;;;;;;;18.92;16.98;;;13.10;99.90;;;;;;4994377;28;90007;-40
2023/08/30 01:58:26;;;;;;;19.00;16.98;;;13.10;99.90;;;;;;4995834;28;89099;-34
2023/08/30 02:00:52;;;;;;;18.63;16.83;;;13.10;99.90;;;;;;4992938;28;89925;-36
2023/08/30 02:03:17;;;;;;;18.20;16.42;;;13.00;99.90;;;;;;4999982;28;89729;-36
2023/08/30 02:06:10;;;;;;;16.17;14.57;;;13.10;99.90;;;;;;4996648;28;89930;-37
2023/08/30 02:09:01;;;;;;;19.20;17.20;;;13.00;99.90;;;;;;5005588;28;89444;-38
2023/08/30 02:11:28;;;;;;;18.30;16.45;;;13.00;99.90;;;;;;4989028;28;90284;-39
2023/08/30 02:13:58;;;;;;;19.15;16.77;;;13.10;99.90;;;;;;4986121;28;90842;-33
2023/08/30 02:16:28;;;;;;;17.75;16.02;;;13.10;99.90;;;;;;4978209;28;90981;-37
2023/08/30 02:18:54;;;;;;;17.90;16.08;;;13.10;99.90;;;;;;4979783;28;88451;-35
2023/08/30 02:21:20;;;;;;;18.13;16.23;;;13.10;99.90;;;;;;4979443;28;88508;-38
2023/08/30 02:23:52;;;;;;;17.55;15.95;;;13.10;99.90;;;;;;4980014;28;89401;-38
2023/08/30 02:26:19;;;;;;;17.88;15.90;;;13.00;99.90;;;;;;4979401;28;89997;-34
2023/08/30 02:28:45;;;;;;;17.83;15.93;;;13.00;99.90;;;;;;4992182;28;88972;-36
2023/08/30 02:31:11;;;;;;;16.75;14.80;;;12.90;99.90;;;;;;4979056;28;90489;-38
2023/08/30 02:33:40;;;;;;;16.77;14.98;;;12.90;99.90;;;;;;4998979;28;89973;-37
2023/08/30 02:36:05;;;;;;;20.35;15.23;;;12.90;99.90;;;;;;4998569;28;88002;-33
2023/08/30 02:38:31;;;;;;;17.90;16.00;;;12.90;99.90;;;;;;5004096;28;88872;-39
2023/08/30 02:40:57;;;;;;;15.38;13.85;;;12.80;99.90;;;;;;4979322;28;89823;-34
2023/08/30 02:43:22;;;;;;;17.63;15.85;;;12.80;99.90;;;;;;4986331;28;89366;-39
2023/08/30 02:45:48;;;;;;;17.90;15.77;;;12.80;99.90;;;;;;4997993;28;89798;-36
2023/08/30 02:48:15;;;;;;;15.80;14.27;;;12.80;99.90;;;;;;4979773;28;88727;-37
2023/08/30 02:50:41;;;;;;;15.32;13.77;;;12.80;99.90;;;;;;4994634;28;90443;-36
2023/08/30 02:53:08;;;;;;;17.67;15.52;;;12.70;99.90;;;;;;4998864;28;89618;-33
2023/08/30 02:55:34;;;;;;;17.50;15.40;;;12.70;99.90;;;;;;4978883;28;89629;-34
2023/08/30 02:58:00;;;;;;;18.25;16.40;;;12.70;99.90;;;;;;4992438;28;87924;-34
2023/08/30 03:00:26;;;;;;;16.70;14.95;;;12.70;99.90;;;;;;4978878;28;90312;-33
2023/08/30 03:02:52;;;;;;;19.38;17.38;;;12.70;99.90;;;;;;4996751;28;90359;-40
2023/08/30 03:05:18;;;;;;;16.58;14.88;;;12.70;99.90;;;;;;4998322;28;90455;-33
2023/08/30 03:07:44;;;;;;;18.00;14.80;;;12.60;99.90;;;;;;4997899;28;90501;-33
2023/08/30 03:10:10;;;;;;;17.00;14.70;;;12.60;99.90;;;;;;4998185;28;89902;-34
2023/08/30 03:12:35;;;;;;;18.85;16.60;;;12.50;99.90;;;;;;4998016;28;90147;-35
2023/08/30 03:15:01;;;;;;;18.63;16.63;;;12.50;99.90;;;;;;4999036;28;89757;-35
2023/08/30 03:17:27;;;;;;;18.52;15.60;;;12.60;99.90;;;;;;4998773;28;89388;-33
2023/08/30 03:19:53;;;;;;;19.33;15.70;;;12.60;99.90;;;;;;4997855;28;90031;-33
2023/08/30 03:22:19;;;;;;;17.77;16.10;;;12.60;99.90;;;;;;4995218;28;89943;-33
2023/08/30 03:24:44;;;;;;;20.88;15.65;;;12.60;99.90;;;;;;4998044;28;89661;-35
2023/08/30 03:27:10;;;;;;;18.23;16.35;;;12.50;99.90;;;;;;4995959;28;91051;-40
2023/08/30 03:29:35;;;;;;;18.52;16.52;;;12.50;99.90;;;;;;4997738;28;90432;-36
2023/08/30 03:32:01;;;;;;;18.15;15.80;;;12.50;99.90;;;;;;4995191;28;89979;-40
2023/08/30 03:34:27;;;;;;;19.27;16.27;;;12.50;99.90;;;;;;4996948;28;89599;-32
2023/08/30 03:36:54;;;;;;;17.52;15.75;;;12.50;99.90;;;;;;4996908;28;89278;-34
2023/08/30 03:39:23;;;;;;;18.63;16.83;;;12.50;99.90;;;;;;4979849;28;89217;-39
2023/08/30 03:41:49;;;;;;;17.85;16.00;;;12.50;99.90;;;;;;4984671;28;89526;-40
2023/08/30 03:44:15;;;;;;;19.48;17.10;;;12.50;99.90;;;;;;4998048;28;89589;-33
2023/08/30 03:46:40;;;;;;;17.15;15.35;;;12.50;99.90;;;;;;4997872;28;89359;-37
2023/08/30 03:49:06;;;;;;;20.20;16.23;;;12.40;99.90;;;;;;4997688;28;90289;-38
2023/08/30 03:51:32;;;;;;;16.95;15.15;;;12.40;99.90;;;;;;4997260;28;91687;-38
2023/08/30 03:53:57;;;;;;;21.88;17.38;;;12.40;99.90;;;;;;4998156;28;90022;-34
2023/08/30 03:56:23;;;;;;;18.63;16.73;;;12.40;99.90;;;;;;4990964;28;88522;-39
2023/08/30 03:58:49;;;;;;;18.45;16.55;;;12.30;99.90;;;;;;4990963;28;90988;-35
2023/08/30 04:01:14;;;;;;;16.52;14.88;;;12.30;99.90;;;;;;4991677;28;89883;-34
2023/08/30 04:03:40;;;;;;;17.67;15.88;;;12.30;99.90;;;;;;4997643;28;88961;-34
2023/08/30 04:06:06;;;;;;;19.55;16.75;;;12.30;99.90;;;;;;4997628;28;89182;-34
2023/08/30 04:08:32;;;;;;;18.13;16.30;;;12.30;99.90;;;;;;4997366;28;89195;-33
2023/08/30 04:10:58;;;;;;;20.73;15.98;;;12.30;99.90;;;;;;4996714;28;89795;-36
2023/08/30 04:13:24;;;;;;;20.60;18.38;;;12.20;99.90;;;;;;5001089;28;89777;-33
2023/08/30 04:15:49;;;;;;;17.45;15.63;;;12.30;99.90;;;;;;4981957;28;88979;-34
2023/08/30 04:18:15;;;;;;;18.80;16.23;;;12.20;99.90;;;;;;4981910;28;90450;-34
2023/08/30 04:20:47;;;;;;;19.13;17.15;;;12.20;99.90;;;;;;4986925;28;90519;-37
2023/08/30 04:23:13;;;;;;;24.30;18.10;;;12.20;99.90;;;;;;5000704;28;91239;-34
2023/08/30 04:25:39;;;;;;;21.98;17.98;;;12.20;99.90;;;;;;4987406;28;87664;-33
2023/08/30 04:28:04;;;;;;;20.50;17.70;;;12.20;99.90;;;;;;5001146;28;89547;-35
2023/08/30 04:30:30;;;;;;;19.60;17.30;;;12.20;99.90;;;;;;4981736;28;89575;-34
2023/08/30 04:32:56;;;;;;;19.13;16.55;;;12.10;99.90;;;;;;4981457;28;90049;-40
2023/08/30 04:35:21;;;;;;;20.65;17.30;;;12.20;99.90;;;;;;4981658;28;88869;-36
2023/08/30 04:37:48;;;;;;;25.73;17.95;;;12.10;99.90;;;;;;4981503;28;89464;-37
2023/08/30 04:40:14;;;;;;;18.35;15.85;;;12.20;99.90;;;;;;4979153;28;90798;-33
2023/08/30 04:42:40;;;;;;;17.55;15.20;;;12.20;99.90;;;;;;4981556;28;90935;-37
2023/08/30 04:45:06;;;;;;;18.45;16.48;;;12.20;99.90;;;;;;4981783;28;89532;-35
2023/08/30 04:47:33;;;;;;;19.17;16.88;;;12.20;99.90;;;;;;4994982;28;90085;-34
2023/08/30 04:49:59;;;;;;;19.15;16.42;;;12.30;99.90;;;;;;4999367;28;90025;-34
2023/08/30 04:52:25;;;;;;;19.30;17.02;;;12.30;99.90;;;;;;4993170;28;90176;-34
2023/08/30 04:54:51;;;;;;;19.45;15.05;;;12.30;99.90;;;;;;5000151;28;90266;-37
2023/08/30 04:57:17;;;;;;;18.42;15.93;;;12.30;99.90;;;;;;4993769;28;90056;-33
2023/08/30 04:59:44;;;;;;;17.70;15.95;;;12.30;99.90;;;;;;4998537;28;89736;-35
2023/08/30 05:02:10;;;;;;;18.35;15.65;;;12.40;99.90;;;;;;4994849;28;89638;-34
2023/08/30 05:04:36;;;;;;;17.33;15.32;;;12.40;99.90;;;;;;4999319;28;90365;-40
2023/08/30 05:07:02;;;;;;;20.67;15.98;;;12.40;99.90;;;;;;5000553;28;90145;-39
2023/08/30 05:09:30;;;;;;;22.75;16.52;;;12.40;99.90;;;;;;4999158;28;88579;-33
2023/08/30 05:11:55;;;;;;;18.40;16.53;;;12.40;99.90;;;;;;4999095;28;89448;-36
2023/08/30 05:14:21;;;;;;;18.40;15.73;;;12.40;99.90;;;;;;4981088;28;88308;-36
2023/08/30 05:16:48;;;;;;;17.27;15.48;;;12.40;99.90;;;;;;4993575;28;91673;-36
2023/08/30 05:19:16;;;;;;;18.38;15.02;;;12.40;99.90;;;;;;4986855;28;91736;-38
2023/08/30 05:21:41;;;;;;;19.58;15.65;;;12.50;99.90;;;;;;4999966;28;89369;-37
2023/08/30 05:24:07;;;;;;;18.88;15.43;;;12.50;99.90;;;;;;4999730;28;89423;-39
2023/08/30 05:26:33;;;;;;;16.48;14.13;;;12.50;99.90;;;;;;4987007;28;90793;-37
2023/08/30 05:28:58;;;;;;;21.13;16.38;;;12.50;99.90;;;;;;4987161;28;90746;-36
2023/08/30 05:31:24;;;;;;;19.92;15.48;;;12.50;99.90;;;;;;5011376;28;90459;-35
2023/08/30 05:33:50;;;;;;;17.05;15.25;;;12.60;99.90;;;;;;4987546;28;88384;-38
2023/08/30 05:36:16;;;;;;;19.33;16.27;;;12.60;99.90;;;;;;4986160;28;90254;-39
2023/08/30 05:38:42;;;;;;;21.35;15.50;;;12.60;99.90;;;;;;4987410;28;89740;-39
2023/08/30 05:41:08;;;;;;;15.60;14.02;;;12.60;99.90;;;;;;5012912;28;89694;-36
2023/08/30 05:43:33;;;;;;;20.08;15.27;;;12.70;99.90;;;;;;4992766;28;88577;-34
2023/08/30 05:46:02;;;;;;;18.35;15.25;;;12.70;99.90;;;;;;4993776;28;90047;-38
2023/08/30 05:48:32;;;;;;;19.85;16.35;;;12.70;99.90;;;;;;4987505;28;89508;-34
2023/08/30 05:50:58;;;;;;;17.88;15.98;;;12.70;99.90;;;;;;5000396;28;89796;-32
2023/08/30 05:53:23;;;;;;;21.20;15.88;;;12.80;99.90;;;;;;4998966;28;90749;-37
2023/08/30 05:55:49;;;;;;;19.10;15.27;;;12.80;99.90;;;;;;5000030;28;90179;-38
2023/08/30 05:58:15;;;;;;;19.77;16.48;;;12.80;99.90;;;;;;4998401;28;89798;-37
2023/08/30 06:00:41;;;;;;;19.48;15.65;;;12.90;99.90;;;;;;4999150;28;89379;-33
2023/08/30 06:03:07;;;;;;;16.38;14.65;;;12.90;99.90;;;;;;4999311;28;88688;-38
2023/08/30 06:05:33;;;;;;;16.00;14.00;;;12.90;99.90;;;;;;4999287;28;91550;-33
2023/08/30 06:07:59;;;;;;;16.92;15.18;;;12.90;99.90;;;;;;4999336;28;90643;-34
2023/08/30 06:10:25;;;;;;;21.02;15.70;;;13.00;99.90;;;;;;4993354;28;89980;-33
2023/08/30 06:12:50;;;;;;;17.30;15.13;;;13.00;99.90;;;;;;4993730;28;89288;-35
2023/08/30 06:15:16;;;;;;;19.05;15.55;;;13.10;99.90;;;;;;4999015;28;90167;-35
2023/08/30 06:17:42;;;;;;;16.17;14.25;;;13.10;99.90;;;;;;4991509;28;90060;-34
2023/08/30 06:20:08;;;;;;;18.63;15.00;;;13.10;99.90;;;;;;4992473;28;90474;-36
2023/08/30 06:22:33;;;;;;;18.25;15.35;;;13.20;99.90;;;;;;4991177;28;88477;-38
2023/08/30 06:24:59;;;;;;;19.55;16.45;;;13.20;99.90;;;;;;4991651;28;90199;-38
2023/08/30 06:27:24;;;;;;;16.92;14.98;;;13.20;99.90;;;;;;4988528;28;90091;-35
2023/08/30 06:29:50;;;;;;;20.42;14.90;;;13.20;99.90;;;;;;4995372;28;89767;-35
2023/08/30 06:32:16;;;;;;;18.83;15.77;;;13.30;99.90;;;;;;4996183;28;89458;-36
2023/08/30 06:34:43;;;;;;;20.25;16.92;;;13.30;99.90;;;;;;4985421;28;90307;-34
2023/08/30 06:37:08;;;;;;;20.67;15.75;;;13.30;99.90;;;;;;4982822;28;90363;-34
2023/08/30 06:39:36;;;;;;;18.95;14.93;;;13.30;99.90;;;;;;4980651;28;90209;-33
2023/08/30 06:42:04;;;;;;;19.70;14.47;;;13.40;99.90;;;;;;4980327;28;89565;-36
2023/08/30 06:44:30;;;;;;;20.35;15.20;;;13.40;99.90;;;;;;4980796;28;89659;-34
2023/08/30 06:46:59;;;;;;;18.33;14.40;;;13.40;99.90;;;;;;4981958;28;89939;-37
2023/08/30 06:49:24;;;;;;;17.48;15.18;;;13.40;99.90;;;;;;4978666;28;90012;-34
2023/08/30 06:51:50;;;;;;;21.15;16.80;;;13.50;99.90;;;;;;4993701;28;89222;-37
2023/08/30 06:54:16;;;;;;;19.48;16.35;;;13.50;99.90;;;;;;4996074;28;90197;-37
2023/08/30 06:56:56;;;;;;;17.65;14.85;;;13.60;99.90;;;;;;4995894;28;89884;-34
2023/08/30 06:59:22;;;;;;;19.50;15.77;;;13.60;99.90;;;;;;4996773;28;91417;-35
2023/08/30 07:01:47;;;;;;;27.00;17.90;;;13.70;99.90;;;;;;4991761;28;89244;-38
2023/08/30 07:04:13;;;;;;;18.33;15.63;;;13.70;99.90;;;;;;4995704;28;90452;-39
2023/08/30 07:06:38;;;;;;;21.33;16.80;;;13.70;99.90;;;;;;4995545;28;90636;-33
2023/08/30 07:09:06;;;;;;;20.67;16.70;;;13.80;99.90;;;;;;4996013;28;90284;-34
2023/08/30 07:11:32;;;;;;;19.63;16.53;;;13.90;99.90;;;;;;4996133;28;90008;-36
2023/08/30 07:13:57;;;;;;;20.90;17.00;;;14.00;99.90;;;;;;4994791;28;90563;-32
2023/08/30 07:16:23;;;;;;;18.60;15.90;;;14.00;99.90;;;;;;4995887;28;90553;-33
2023/08/30 07:18:48;;;;;;;19.98;16.73;;;14.20;99.90;;;;;;4994560;28;89829;-35
2023/08/30 07:21:14;;;;;;;22.58;17.13;;;14.20;99.90;;;;;;4994588;28;88558;-34
2023/08/30 07:23:39;;;;;;;20.63;16.83;;;14.30;99.90;;;;;;4994097;28;90215;-37
2023/08/30 07:26:05;;;;;;;18.00;16.10;;;14.30;99.90;;;;;;4994319;28;90223;-38
2023/08/30 07:28:31;;;;;;;18.02;15.93;;;14.40;99.90;;;;;;4994998;28;89501;-33
2023/08/30 07:31:03;;;;;;;18.92;16.05;;;14.40;99.90;;;;;;4995259;28;90216;-35
2023/08/30 07:33:29;;;;;;;22.50;16.73;;;14.40;99.90;;;;;;4994081;28;89684;-36
2023/08/30 07:35:55;;;;;;;20.50;16.42;;;14.40;99.90;;;;;;4995491;28;89739;-35
2023/08/30 07:38:20;;;;;;;21.05;16.63;;;14.40;99.90;;;;;;4995584;28;90373;-34
2023/08/30 07:40:46;;;;;;;17.48;15.63;;;14.40;99.90;;;;;;4995038;28;88093;-33
2023/08/30 07:43:11;;;;;;;22.35;17.85;;;14.50;99.90;;;;;;4994562;28;90667;-38
2023/08/30 07:45:37;;;;;;;18.65;16.50;;;14.60;99.90;;;;;;4993836;28;89816;-39
2023/08/30 07:48:03;;;;;;;22.55;16.20;;;14.60;99.90;;;;;;4992240;28;89531;-37
2023/08/30 07:50:29;;;;;;;18.35;16.10;;;14.70;99.90;;;;;;4988540;28;89536;-35
2023/08/30 07:52:54;;;;;;;18.77;16.30;;;14.80;99.90;;;;;;4993054;28;90006;-35
2023/08/30 07:55:20;;;;;;;20.00;16.83;;;14.90;99.90;;;;;;4995157;28;89272;-38
2023/08/30 07:57:46;;;;;;;18.65;15.40;;;14.90;99.90;;;;;;4986162;28;90090;-38
2023/08/30 08:00:12;;;;;;;23.50;16.75;;;15.00;99.90;;;;;;4977666;28;89091;-33
2023/08/30 08:02:38;;;;;;;19.05;16.23;;;15.10;99.90;;;;;;4989747;28;91457;-33
2023/08/30 08:05:04;;;;;;;18.98;16.50;;;15.30;99.90;;;;;;4994590;28;90702;-35
2023/08/30 08:07:30;;;;;;;18.27;15.90;;;15.50;99.90;;;;;;4982655;28;89500;-34
2023/08/30 08:09:57;;;;;;;22.70;14.38;;;15.80;99.90;;;;;;4984888;28;89534;-33
2023/08/30 08:12:22;;;;;;;17.65;14.65;;;16.10;99.90;;;;;;4994434;28;89789;-34
2023/08/30 08:14:48;;;;;;;21.40;15.88;;;16.40;99.90;;;;;;4985251;28;90209;-37
2023/08/30 08:17:14;;;;;;;19.75;15.07;;;16.70;99.90;;;;;;4980855;28;89658;-35
2023/08/30 08:19:39;;;;;;;15.98;14.18;;;16.90;99.90;;;;;;4988816;28;88620;-33
2023/08/30 08:22:06;;;;;;;17.90;14.25;;;17.20;99.90;;;;;;4973919;28;89613;-34
2023/08/30 08:24:32;;;;;;;18.67;15.50;;;17.30;99.90;;;;;;4989712;28;89865;-34
2023/08/30 08:29:35;;;;;;;17.20;14.48;;;16.90;99.90;;;;;;4950684;28;88750;-33
2023/08/30 08:32:00;;;;;;;17.33;14.20;;;16.90;99.90;;;;;;4938734;28;90291;-35
2023/08/30 08:34:26;;;;;;;18.02;14.30;;;16.90;99.90;;;;;;4954867;28;89677;-33
2023/08/30 08:36:51;;;;;;;21.10;16.48;;;16.80;99.90;;;;;;4956772;28;90013;-33
2023/08/30 08:39:18;;;;;;;17.60;14.60;;;16.70;99.90;;;;;;4955420;28;89959;-35
2023/08/30 08:41:45;;;;;;;25.50;15.38;;;16.70;99.90;;;;;;4955729;28;91375;-34
2023/08/30 08:44:11;;;;;;;18.63;14.68;;;16.70;99.90;;;;;;4953529;28;90668;-34
2023/08/30 08:46:38;;;;;;;20.25;15.43;;;16.70;99.90;;;;;;4957541;28;90470;-37
2023/08/30 08:49:17;;;;;;;15.05;12.30;;;16.70;99.90;;;;;;4954859;28;90058;-37
2023/08/30 08:51:44;;;;;;;;;;;16.70;99.90;;;;;;4956619;28;90324;-34
2023/08/30 08:54:10;;;;;;;19.25;14.57;;;16.70;99.90;;;;;;4957346;28;89193;-33
2023/08/30 08:56:37;;;;;;;18.05;14.45;;;16.70;99.90;;;;;;4956765;28;88980;-36
2023/08/30 08:59:05;;;;;;;15.75;13.25;;;16.70;99.90;;;;;;4959307;28;89879;-34
2023/08/30 09:01:33;;;;;;;21.58;13.57;;;16.80;99.90;;;;;;4958699;28;90408;-33
2023/08/30 09:03:59;;;;;;;15.98;13.90;;;16.80;99.90;;;;;;4949499;28;89724;-36
2023/08/30 09:06:25;;;;;;;21.08;14.93;;;16.80;99.90;;;;;;4941885;28;89417;-34
2023/08/30 09:08:51;;;;;;;14.38;12.23;;;16.80;99.90;;;;;;4947533;28;89044;-33
2023/08/30 09:11:16;;;;;;;20.08;13.63;;;16.80;99.90;;;;;;4953333;28;89120;-33
2023/08/30 09:13:44;;;;;;;18.83;13.45;;;16.60;99.90;;;;;;4955451;28;89837;-34
2023/08/30 09:16:15;;;;;;;17.65;13.68;;;16.60;99.90;;;;;;4951956;28;89117;-35
2023/08/30 09:18:42;;;;;;;15.93;12.15;;;16.60;99.90;;;;;;4956874;28;88931;-34
2023/08/30 09:21:08;;;;;;;18.02;12.93;;;16.50;99.90;;;;;;4953285;28;90194;-34
2023/08/30 09:23:35;;;;;;;15.90;13.60;;;16.50;99.90;;;;;;4954247;28;89822;-33
2023/08/30 09:26:02;;;;;;;14.75;11.48;;;16.40;99.90;;;;;;4954615;28;89513;-34
2023/08/30 09:28:28;;;;;;;16.50;12.98;;;16.50;99.90;;;;;;4952675;28;88677;-38
2023/08/30 09:30:54;;;;;;;19.90;12.98;;;16.50;99.90;;;;;;4950546;28;90668;-34
2023/08/30 09:33:30;;;;;;;13.75;12.32;;;16.40;99.90;;;;;;4950455;28;89978;-36
2023/08/30 09:35:56;;;;;;;14.75;13.07;;;16.40;99.90;;;;;;4948017;28;89277;-34
2023/08/30 09:38:23;;;;;;;17.25;13.55;;;16.30;99.90;;;;;;4953208;28;88185;-37
2023/08/30 09:40:49;;;;;;;14.82;13.23;;;16.30;99.90;;;;;;4948395;28;90927;-34
2023/08/30 09:43:21;;;;;;;15.05;12.10;;;16.30;99.90;;;;;;4952924;28;89595;-33
2023/08/30 09:45:48;;;;;;;17.77;12.95;;;16.20;99.90;;;;;;4954158;28;89016;-33
2023/08/30 09:48:14;;;;;;;17.35;14.07;;;16.20;99.90;;;;;;4959367;28;89399;-36
2023/08/30 09:50:44;;;;;;;16.33;12.18;;;16.20;99.90;;;;;;4953925;28;91235;-37
2023/08/30 09:53:13;;;;;;;14.55;13.00;;;16.20;99.90;;;;;;4946292;28;88847;-34
2023/08/30 09:55:40;;;;;;;20.00;14.07;;;16.20;99.90;;;;;;4954159;28;89455;-35
2023/08/30 09:58:06;;;;;;;15.60;13.18;;;16.20;99.90;;;;;;4942130;28;88960;-35
2023/08/30 10:00:36;;;;;;;18.42;13.20;;;16.20;99.90;;;;;;4941114;28;90844;-39
2023/08/30 10:03:02;;;;;;;18.65;15.10;;;16.10;99.90;;;;;;4940280;28;89619;-39
2023/08/30 10:05:30;;;;;;;18.17;14.52;;;16.10;99.90;;;;;;4952928;28;89591;-34
2023/08/30 10:07:56;;;;;;;16.48;14.25;;;16.20;99.90;;;;;;4960137;28;88571;-35
2023/08/30 10:10:26;;;;;;;14.80;13.23;;;16.10;99.90;;;;;;4944573;28;90390;-33
2023/08/30 10:12:55;;;;;;;15.60;13.77;;;16.20;99.90;;;;;;4947869;28;89617;-34
2023/08/30 10:15:23;;;;;;;18.63;15.73;;;16.20;99.90;;;;;;4958295;28;89571;-35
2023/08/30 10:17:51;;;;;;;;;;;16.20;99.90;;;;;;4948254;28;88892;-37
2023/08/30 10:20:17;;;;;;;17.88;15.43;;;16.10;99.90;;;;;;4947754;28;90754;-33
2023/08/30 10:22:44;;;;;;;23.70;15.95;;;16.20;99.90;;;;;;4953311;28;89726;-39
2023/08/30 10:25:22;;;;;;;17.93;14.17;;;16.40;99.90;;;;;;4943736;28;90482;-34
2023/08/30 10:27:49;;;;;;;19.00;14.43;;;16.40;99.90;;;;;;4939779;28;89944;-33
2023/08/30 10:30:17;;;;;;;15.00;11.23;;;16.30;99.90;;;;;;4950940;28;91290;-34
2023/08/30 10:32:44;;;;;;;16.20;11.35;;;16.30;99.90;;;;;;4941197;28;88597;-36
2023/08/30 10:35:18;;;;;;;11.30;10.10;;;16.30;99.90;;;;;;4944164;28;89564;-35
2023/08/30 10:37:55;;;;;;;10.30;9.23;;;16.10;99.90;;;;;;4949965;28;91036;-33
2023/08/30 10:40:22;;;;;;;8.60;7.70;;;16.00;99.90;;;;;;4943468;28;90099;-34
2023/08/30 10:43:02;;;;;;;10.60;9.43;;;15.90;99.90;;;;;;4948315;28;89928;-34
2023/08/30 10:45:27;;;;;;;10.98;9.65;;;16.00;99.90;;;;;;4940581;28;90219;-34
2023/08/30 10:47:58;;;;;;;12.35;11.05;;;16.00;99.90;;;;;;4944093;28;90543;-39
2023/08/30 10:50:32;;;;;;;15.00;13.40;;;16.00;99.90;;;;;;4939827;28;90390;-39
2023/08/30 10:52:58;;;;;;;13.65;11.48;;;16.20;99.90;;;;;;4946853;28;90037;-34
2023/08/30 10:55:24;;;;;;;13.45;11.50;;;16.20;99.90;;;;;;4945922;28;89582;-38
2023/08/30 10:58:06;;;;;;;11.80;10.60;;;16.10;99.90;;;;;;4951915;28;90153;-36
2023/08/30 11:00:32;;;;;;;10.98;9.88;;;16.10;99.90;;;;;;4946426;28;90028;-39
2023/08/30 11:02:58;;;;;;;8.82;7.80;;;16.10;99.90;;;;;;4940825;28;90561;-37
2023/08/30 11:05:25;;;;;;;10.75;9.40;;;16.00;99.90;;;;;;4946586;28;89651;-36
2023/08/30 11:07:51;;;;;;;9.93;9.00;;;16.10;99.90;;;;;;4942164;28;90216;-34
2023/08/30 11:10:18;;;;;;;11.00;9.90;;;16.10;99.90;;;;;;4952646;28;89939;-33
2023/08/30 11:12:44;;;;;;;10.65;9.60;;;16.20;99.90;;;;;;4941092;28;89991;-34
2023/08/30 11:15:13;;;;;;;11.15;10.05;;;16.30;99.90;;;;;;4944282;28;90429;-34
2023/08/30 11:17:39;;;;;;;10.10;8.75;;;16.20;99.90;;;;;;4945305;28;89181;-39
2023/08/30 11:20:10;;;;;;;11.35;8.40;;;16.10;99.90;;;;;;4942804;28;91578;-36
2023/08/30 11:22:43;;;;;;;10.93;9.82;;;16.10;99.90;;;;;;4939620;28;90049;-33
2023/08/30 11:25:11;;;;;;;10.43;9.40;;;15.80;99.90;;;;;;4941218;28;90135;-38
2023/08/30 11:27:38;;;;;;;12.10;10.43;;;15.80;99.90;;;;;;4945758;28;88018;-34
2023/08/30 11:30:05;;;;;;;12.10;10.68;;;15.90;99.90;;;;;;4937014;28;92034;-34
2023/08/30 11:32:34;;;;;;;16.03;11.70;;;15.90;99.90;;;;;;4935257;28;89614;-37
2023/08/30 11:35:00;;;;;;;13.20;11.80;;;15.90;99.90;;;;;;4949716;28;89540;-37
2023/08/30 11:37:29;;;;;;;15.55;12.63;;;16.00;99.90;;;;;;4949601;28;89359;-34
2023/08/30 11:39:55;;;;;;;13.57;10.82;;;15.90;99.90;;;;;;4937027;28;89567;-35
2023/08/30 11:42:22;;;;;;;14.57;12.65;;;15.90;99.90;;;;;;4937943;28;91349;-33
2023/08/30 11:44:49;;;;;;;12.95;11.55;;;15.90;99.90;;;;;;4939401;28;89508;-35
2023/08/30 11:47:23;;;;;;;14.70;12.82;;;15.90;99.90;;;;;;4937914;28;89483;-39
2023/08/30 11:49:50;;;;;;;14.00;12.52;;;15.90;99.90;;;;;;4937295;28;89712;-38
2023/08/30 11:52:17;;;;;;;16.42;13.13;;;15.90;99.90;;;;;;4943249;28;89822;-33
2023/08/30 11:54:43;;;;;;;14.27;12.05;;;15.90;99.90;;;;;;4944751;28;89194;-33
2023/08/30 11:57:09;;;;;;;16.80;13.32;;;16.00;99.90;;;;;;4943341;28;89773;-35
2023/08/30 11:59:35;;;;;;;16.38;13.35;;;16.10;99.90;;;;;;4951929;28;90528;-38
2023/08/30 12:02:02;;;;;;;14.90;12.95;;;16.00;99.90;;;;;;4953498;28;90194;-33
2023/08/30 12:04:28;;;;;;;15.63;13.45;;;16.00;99.90;;;;;;4954365;28;90214;-34
2023/08/30 12:06:53;;;;;;;15.32;13.48;;;15.90;99.90;;;;;;4956221;28;87624;-37
2023/08/30 12:09:22;;;;;;;15.90;13.30;;;15.90;99.90;;;;;;4955199;28;90372;-38
2023/08/30 12:11:49;;;;;;;15.18;13.60;;;15.90;99.90;;;;;;4954895;28;88531;-34
2023/08/30 12:14:14;;;;;;;16.13;14.45;;;15.80;99.90;;;;;;4937218;28;89577;-40
2023/08/30 12:16:41;;;;;;;16.35;14.65;;;15.80;99.90;;;;;;4956183;28;87822;-35
2023/08/30 12:19:14;;;;;;;16.75;14.77;;;15.90;99.90;;;;;;4954620;28;90373;-37
2023/08/30 12:21:42;;;;;;;15.48;13.60;;;15.90;99.90;;;;;;4957433;28;90129;-34
2023/08/30 12:24:08;;;;;;;17.98;15.43;;;15.80;99.90;;;;;;4955006;28;90287;-37
2023/08/30 12:26:33;;;;;;;16.42;14.65;;;15.80;99.90;;;;;;4953621;28;89240;-37
2023/08/30 12:28:59;;;;;;;16.65;14.95;;;15.80;99.90;;;;;;4955555;28;89933;-36